Terminal Aerodrome Forecast
Issued by NWS

Home | Current Version | Previous Version | Text Only | Print | Product List | Glossary On
Versions: 1 2 3 4 5 6 7 8 9 10 11 12 13 14 15 16
000
FTUS45 KABQ 260118 AAA
TAFSAF
TAF AMD
KSAF 260118Z 2601/2624 34010G20KT P6SM BKN060
      TEMPO 2601/2603 -RA OVC050
     FM260300 31011KT P6SM SCT040 BKN100
     FM260900 34010KT P6SM FEW030
     FM261900 28020G30KT P6SM SCT040=

USA.gov is the U.S. government's official web portal to all federal, state and local government web resources and services.